createdAt,value
2018-05-17T00:00:44.533Z,0
2018-05-17T00:01:46.027Z,0
2018-05-17T00:02:47.506Z,0
2018-05-17T00:03:49.012Z,0
2018-05-17T00:04:50.521Z,0
2018-05-17T00:05:52.064Z,0
2018-05-17T00:06:53.597Z,0
2018-05-17T00:07:55.244Z,0
2018-05-17T00:08:56.758Z,0
2018-05-17T00:09:58.268Z,0
2018-05-17T00:10:59.756Z,0
2018-05-17T00:12:01.186Z,0
2018-05-17T00:13:02.670Z,0
2018-05-17T00:14:04.138Z,0
2018-05-17T00:15:05.615Z,0
2018-05-17T00:16:07.098Z,0
2018-05-17T00:17:08.584Z,0
2018-05-17T00:18:10.125Z,0
2018-05-17T00:19:11.581Z,0
2018-05-17T00:20:13.066Z,0
2018-05-17T00:21:14.622Z,0
2018-05-17T00:22:16.129Z,0
2018-05-17T00:23:17.665Z,0
2018-05-17T00:24:19.186Z,0
2018-05-17T00:25:20.756Z,0
2018-05-17T00:26:22.288Z,0
2018-05-17T00:27:23.755Z,0
2018-05-17T00:28:25.170Z,0
2018-05-17T00:29:26.617Z,0
2018-05-17T00:30:28.155Z,0
2018-05-17T00:31:29.797Z,0
2018-05-17T00:32:31.228Z,0
2018-05-17T00:33:32.613Z,0
2018-05-17T00:34:34.078Z,0
2018-05-17T00:35:35.623Z,0
2018-05-17T00:36:37.199Z,0
2018-05-17T00:37:38.818Z,0
2018-05-17T00:39:20.436Z,0
2018-05-17T00:40:21.804Z,0
2018-05-17T00:41:23.204Z,0
2018-05-17T00:42:24.676Z,0
2018-05-17T00:44:05.848Z,0
2018-05-17T00:45:07.225Z,0
2018-05-17T00:46:08.641Z,0
2018-05-17T00:47:55.484Z,0
2018-05-17T00:48:56.909Z,0
2018-05-17T00:50:37.993Z,0
2018-05-17T00:51:39.777Z,0
2018-05-17T00:52:41.561Z,0
2018-05-17T00:53:42.980Z,0
2018-05-17T00:54:44.651Z,0
2018-05-17T00:55:46.342Z,0
2018-05-17T00:56:48.381Z,0
2018-05-17T00:57:49.784Z,0
2018-05-17T00:58:51.495Z,0
2018-05-17T00:59:53.329Z,0
2018-05-17T01:00:54.836Z,0
2018-05-17T01:01:56.490Z,0
2018-05-17T01:02:58.017Z,0
2018-05-17T01:03:59.625Z,0
2018-05-17T01:05:01.188Z,0
2018-05-17T01:06:02.868Z,0
2018-05-17T01:07:04.338Z,0
2018-05-17T01:08:05.896Z,0
2018-05-17T01:09:07.388Z,0
2018-05-17T01:10:09.001Z,0
2018-05-17T01:11:10.500Z,0
2018-05-17T01:12:12.075Z,0
2018-05-17T01:13:13.620Z,0
2018-05-17T01:14:15.414Z,0
2018-05-17T01:15:16.890Z,0
2018-05-17T01:16:18.530Z,0
2018-05-17T01:17:20.000Z,0
2018-05-17T01:18:21.530Z,0
2018-05-17T01:19:23.161Z,0
2018-05-17T01:20:24.777Z,0
2018-05-17T01:21:26.441Z,0
2018-05-17T01:22:27.932Z,0
2018-05-17T01:23:29.452Z,0
2018-05-17T01:24:31.162Z,0
2018-05-17T01:25:32.743Z,0
2018-05-17T01:26:34.383Z,0
2018-05-17T01:27:36.012Z,0
2018-05-17T01:28:37.547Z,0
2018-05-17T01:29:39.317Z,0
2018-05-17T01:30:40.861Z,0
2018-05-17T01:31:42.462Z,0
2018-05-17T01:32:44.075Z,0
2018-05-17T01:33:45.639Z,0
2018-05-17T01:34:47.154Z,0
2018-05-17T01:35:48.960Z,0
2018-05-17T01:36:50.461Z,0
2018-05-17T01:37:51.999Z,0
2018-05-17T01:38:53.562Z,0
2018-05-17T01:39:55.252Z,0
2018-05-17T01:40:56.875Z,0
2018-05-17T01:41:58.343Z,0
2018-05-17T01:42:59.982Z,0
2018-05-17T01:44:01.500Z,0
2018-05-17T01:45:03.005Z,0
2018-05-17T01:46:04.482Z,0
2018-05-17T01:47:05.953Z,0
2018-05-17T01:48:07.453Z,0
2018-05-17T01:49:08.962Z,0
2018-05-17T01:50:10.507Z,0
2018-05-17T01:51:12.024Z,0
2018-05-17T01:52:13.671Z,0
2018-05-17T01:53:15.161Z,0
2018-05-17T01:54:16.703Z,0
2018-05-17T01:55:18.391Z,0
2018-05-17T01:56:19.878Z,0
2018-05-17T01:57:21.467Z,0
2018-05-17T01:58:22.981Z,0
2018-05-17T01:59:24.563Z,0
2018-05-17T02:00:26.152Z,0
2018-05-17T02:01:27.670Z,0
2018-05-17T02:02:29.233Z,0
2018-05-17T02:03:30.761Z,0
2018-05-17T02:04:32.236Z,0
2018-05-17T02:05:33.719Z,0
2018-05-17T02:06:35.260Z,0
2018-05-17T02:07:36.818Z,0
2018-05-17T02:08:38.389Z,0
2018-05-17T02:09:40.143Z,0
2018-05-17T02:10:41.843Z,0
2018-05-17T02:11:43.395Z,0
2018-05-17T02:12:44.993Z,0
2018-05-17T02:13:46.690Z,0
2018-05-17T02:14:48.200Z,0
2018-05-17T02:16:30.177Z,0
2018-05-17T02:17:31.573Z,0
2018-05-17T02:18:33.172Z,0
2018-05-17T02:19:34.662Z,0
2018-05-17T02:20:36.491Z,0
2018-05-17T02:21:38.190Z,0
2018-05-17T02:22:39.923Z,0
2018-05-17T02:23:41.436Z,0
2018-05-17T02:24:43.117Z,0
2018-05-17T02:25:44.793Z,0
2018-05-17T02:26:46.588Z,0
2018-05-17T02:27:48.103Z,0
2018-05-17T02:28:49.749Z,0
2018-05-17T02:29:51.666Z,0
2018-05-17T02:30:53.363Z,0
2018-05-17T02:31:55.021Z,0
2018-05-17T02:32:56.606Z,0
2018-05-17T02:33:58.201Z,0
2018-05-17T02:34:59.808Z,0
2018-05-17T02:36:01.315Z,0
2018-05-17T02:37:02.940Z,0
2018-05-17T02:38:43.780Z,0
2018-05-17T02:39:46.113Z,0
2018-05-17T02:40:47.493Z,0
2018-05-17T02:41:48.948Z,0
2018-05-17T02:42:50.436Z,0
2018-05-17T02:43:51.970Z,0
2018-05-17T02:44:53.472Z,0
2018-05-17T02:45:55.145Z,0
2018-05-17T02:46:56.842Z,0
2018-05-17T02:47:58.465Z,0
2018-05-17T02:49:00.088Z,0
2018-05-17T02:50:01.533Z,0
2018-05-17T02:51:03.082Z,0
2018-05-17T02:52:04.929Z,0
2018-05-17T02:53:06.398Z,0
2018-05-17T02:54:07.938Z,0
2018-05-17T02:55:09.499Z,0
2018-05-17T02:56:11.170Z,0
2018-05-17T02:57:12.694Z,0
2018-05-17T02:58:14.410Z,0
2018-05-17T02:59:16.007Z,0
2018-05-17T03:00:17.666Z,0
2018-05-17T03:01:19.175Z,0
2018-05-17T03:02:20.817Z,0
2018-05-17T03:03:22.418Z,0
2018-05-17T03:04:23.919Z,0
2018-05-17T03:05:25.525Z,4
2018-05-17T03:06:27.174Z,4
2018-05-17T03:07:28.685Z,4
2018-05-17T03:08:30.214Z,4
2018-05-17T03:09:31.744Z,4
2018-05-17T03:10:33.614Z,4
2018-05-17T03:11:36.213Z,4
2018-05-17T03:12:37.715Z,4
2018-05-17T03:13:39.363Z,4
2018-05-17T03:14:40.858Z,8
2018-05-17T03:15:42.421Z,12
2018-05-17T03:16:44.058Z,12
2018-05-17T03:17:45.684Z,16
2018-05-17T03:18:47.135Z,16
2018-05-17T03:19:48.654Z,24
2018-05-17T03:20:50.157Z,28
2018-05-17T03:21:51.855Z,32
2018-05-17T03:22:53.480Z,36
2018-05-17T03:23:55.032Z,36
2018-05-17T03:24:56.551Z,44
2018-05-17T03:25:58.203Z,44
2018-05-17T03:26:59.771Z,48
2018-05-17T03:28:01.295Z,56
2018-05-17T03:29:02.940Z,64
2018-05-17T03:30:04.458Z,76
2018-05-17T03:31:06.825Z,80
2018-05-17T03:32:08.342Z,84
2018-05-17T03:33:10.018Z,96
2018-05-17T03:34:11.637Z,104
2018-05-17T03:35:13.288Z,104
2018-05-17T03:36:14.868Z,116
2018-05-17T03:37:16.400Z,144
2018-05-17T03:38:18.228Z,148
2018-05-17T03:39:19.885Z,148
2018-05-17T03:40:21.504Z,140
2018-05-17T03:41:23.055Z,124
2018-05-17T03:42:24.652Z,116
2018-05-17T03:43:26.255Z,124
2018-05-17T03:44:27.999Z,132
2018-05-17T03:45:29.578Z,148
2018-05-17T03:46:31.323Z,148
2018-05-17T03:47:32.947Z,148
2018-05-17T03:48:34.519Z,144
2018-05-17T03:49:36.032Z,172
2018-05-17T03:50:37.576Z,184
2018-05-17T03:51:39.375Z,232
2018-05-17T03:52:40.836Z,232
2018-05-17T03:53:42.326Z,224
2018-05-17T03:54:43.898Z,264
2018-05-17T03:55:45.662Z,320
2018-05-17T03:56:47.260Z,312
2018-05-17T03:57:48.793Z,296
2018-05-17T03:58:50.349Z,292
2018-05-17T03:59:52.009Z,304
2018-05-17T04:00:53.603Z,308
2018-05-17T04:01:55.180Z,328
2018-05-17T04:02:56.731Z,336
2018-05-17T04:03:58.327Z,384
2018-05-17T04:04:59.774Z,388
2018-05-17T04:06:01.202Z,380
2018-05-17T04:07:02.934Z,368
2018-05-17T04:08:04.372Z,428
2018-05-17T04:09:06.053Z,500
2018-05-17T04:10:07.692Z,516
2018-05-17T04:11:09.279Z,496
2018-05-17T04:12:10.883Z,524
2018-05-17T04:13:12.391Z,540
2018-05-17T04:14:13.889Z,512
2018-05-17T04:15:15.491Z,464
2018-05-17T04:16:17.064Z,464
2018-05-17T04:17:58.772Z,432
2018-05-17T04:19:00.159Z,440
2018-05-17T04:20:01.620Z,424
2018-05-17T04:21:03.159Z,476
2018-05-17T04:22:04.706Z,488
2018-05-17T04:23:06.289Z,532
2018-05-17T04:24:07.779Z,620
2018-05-17T04:25:09.387Z,628
2018-05-17T04:26:10.887Z,588
2018-05-17T04:27:12.352Z,624
2018-05-17T04:28:13.928Z,692
2018-05-17T04:29:15.527Z,744
2018-05-17T04:30:17.132Z,728
2018-05-17T04:31:18.890Z,736
2018-05-17T04:33:00.029Z,820
2018-05-17T04:34:41.190Z,916
2018-05-17T04:35:42.687Z,896
2018-05-17T04:36:44.023Z,900
2018-05-17T04:37:45.542Z,948
2018-05-17T04:38:47.257Z,964
2018-05-17T04:40:28.203Z,1212
2018-05-17T04:42:09.184Z,1508
2018-05-17T04:43:10.596Z,1392
2018-05-17T04:44:12.086Z,1304
2018-05-17T04:45:13.685Z,1284
2018-05-17T04:46:15.156Z,1424
2018-05-17T04:47:16.880Z,1556
2018-05-17T04:48:18.357Z,1428
2018-05-17T04:49:19.955Z,1392
2018-05-17T04:50:21.479Z,1328
2018-05-17T04:52:02.801Z,1260
2018-05-17T04:53:43.811Z,1376
2018-05-17T04:54:45.271Z,1672
2018-05-17T04:56:26.603Z,1524
2018-05-17T04:57:28.374Z,1432
2018-05-17T04:58:29.858Z,1452
2018-05-17T04:59:31.414Z,1676
2018-05-17T05:01:12.298Z,2116
2018-05-17T05:02:13.704Z,2384
2018-05-17T05:03:56.595Z,1944
2018-05-17T05:05:39.123Z,1880
2018-05-17T05:07:20.048Z,1952
2018-05-17T05:08:21.954Z,1960
2018-05-17T05:10:02.873Z,1752
2018-05-17T05:11:04.302Z,1760
2018-05-17T05:12:05.951Z,1944
2018-05-17T05:13:46.807Z,2308
2018-05-17T05:14:48.472Z,2344
2018-05-17T05:15:50.034Z,2468
2018-05-17T05:16:51.567Z,2072
2018-05-17T05:17:53.636Z,1920
2018-05-17T05:18:55.209Z,1980
2018-05-17T05:19:56.893Z,2052
2018-05-17T05:20:58.706Z,1936
2018-05-17T05:22:00.326Z,1824
2018-05-17T05:23:01.860Z,1996
2018-05-17T05:24:03.435Z,1900
2018-05-17T05:25:04.922Z,1556
2018-05-17T05:26:45.792Z,1484
2018-05-17T05:27:48.215Z,1532
2018-05-17T05:28:49.826Z,1592
2018-05-17T05:29:51.500Z,1484
2018-05-17T05:31:34.429Z,1188
2018-05-17T05:32:36.186Z,1196
2018-05-17T05:33:37.609Z,1316
2018-05-17T05:34:39.238Z,1476
2018-05-17T05:35:40.950Z,1696
2018-05-17T05:36:42.538Z,1936
2018-05-17T05:37:44.085Z,2144
2018-05-17T05:38:45.701Z,2296
2018-05-17T05:39:47.341Z,2412
2018-05-17T05:40:48.878Z,2596
2018-05-17T05:41:50.484Z,3224
2018-05-17T05:42:52.064Z,3976
2018-05-17T05:43:53.585Z,3812
2018-05-17T05:44:55.320Z,3212
2018-05-17T05:45:56.909Z,3364
2018-05-17T05:46:58.430Z,3624
2018-05-17T05:48:00.074Z,3828
2018-05-17T05:49:01.625Z,4292
2018-05-17T05:50:03.174Z,4680
2018-05-17T05:51:04.791Z,5060
2018-05-17T05:52:06.307Z,4896
2018-05-17T05:53:07.948Z,5060
2018-05-17T05:54:09.644Z,5008
2018-05-17T05:55:11.232Z,5172
2018-05-17T05:56:12.699Z,5520
2018-05-17T05:57:14.287Z,5984
2018-05-17T05:58:15.809Z,6136
2018-05-17T05:59:17.505Z,6448
2018-05-17T06:00:19.128Z,6920
2018-05-17T06:01:20.647Z,7096
2018-05-17T06:02:22.412Z,7252
2018-05-17T06:03:23.876Z,7440
2018-05-17T06:04:25.488Z,7356
2018-05-17T06:05:27.073Z,7140
2018-05-17T06:06:28.607Z,7500
2018-05-17T06:07:30.210Z,7556
2018-05-17T06:08:31.930Z,6956
2018-05-17T06:09:33.467Z,6132
2018-05-17T06:10:35.204Z,5484
2018-05-17T06:11:36.879Z,4692
2018-05-17T06:12:38.383Z,4072
2018-05-17T06:13:39.929Z,3820
2018-05-17T06:14:41.730Z,3908
2018-05-17T06:15:43.296Z,4064
2018-05-17T06:16:44.875Z,4324
2018-05-17T06:17:46.603Z,4436
2018-05-17T06:18:48.409Z,4588
2018-05-17T06:19:50.450Z,4916
2018-05-17T06:20:51.593Z,5360
2018-05-17T06:21:53.152Z,6060
2018-05-17T06:22:54.694Z,6912
2018-05-17T06:23:56.904Z,7692
2018-05-17T06:24:58.557Z,8188
2018-05-17T06:26:00.052Z,8344
2018-05-17T06:27:01.614Z,8504
2018-05-17T06:28:03.125Z,7904
2018-05-17T06:29:04.695Z,6876
2018-05-17T06:30:06.306Z,6496
2018-05-17T06:31:07.972Z,6072
2018-05-17T06:32:09.400Z,5704
2018-05-17T06:33:10.947Z,5624
2018-05-17T06:34:12.582Z,6016
2018-05-17T06:35:14.361Z,6464
2018-05-17T06:36:15.865Z,6760
2018-05-17T06:37:17.559Z,6952
2018-05-17T06:38:19.075Z,6588
2018-05-17T06:39:20.641Z,6364
2018-05-17T06:40:22.345Z,6836
2018-05-17T06:41:23.834Z,7412
2018-05-17T06:42:25.327Z,7496
2018-05-17T06:43:26.987Z,7392
2018-05-17T06:44:28.516Z,7148
2018-05-17T06:45:30.057Z,6964
2018-05-17T06:46:31.645Z,7016
2018-05-17T06:47:33.177Z,7124
2018-05-17T06:48:34.763Z,7292
2018-05-17T06:49:36.290Z,7424
2018-05-17T06:50:37.845Z,7468
2018-05-17T06:51:39.510Z,8028
2018-05-17T06:52:41.140Z,8940
2018-05-17T06:53:42.706Z,9972
2018-05-17T06:54:44.347Z,11392
2018-05-17T06:55:46.023Z,12708
2018-05-17T06:56:47.754Z,12392
2018-05-17T06:57:49.354Z,11076
2018-05-17T06:58:50.881Z,10648
2018-05-17T06:59:52.432Z,10908
2018-05-17T07:00:54.147Z,11132
2018-05-17T07:01:55.636Z,11136
2018-05-17T07:02:57.242Z,10960
2018-05-17T07:03:58.796Z,10592
2018-05-17T07:05:00.398Z,10968
2018-05-17T07:06:02.011Z,11280
2018-05-17T07:07:03.642Z,11380
2018-05-17T07:08:05.209Z,11420
2018-05-17T07:09:06.761Z,11336
2018-05-17T07:10:08.403Z,11976
2018-05-17T07:11:10.038Z,12716
2018-05-17T07:12:11.529Z,12392
2018-05-17T07:13:13.050Z,12444
2018-05-17T07:14:14.723Z,13512
2018-05-17T07:15:16.285Z,14868
2018-05-17T07:16:17.832Z,16408
2018-05-17T07:17:19.345Z,17396
2018-05-17T07:18:20.969Z,16628
2018-05-17T07:19:22.554Z,15104
2018-05-17T07:20:24.115Z,14036
2018-05-17T07:21:25.757Z,13900
2018-05-17T07:22:27.365Z,14184
2018-05-17T07:23:28.926Z,14928
2018-05-17T07:24:30.417Z,15928
2018-05-17T07:25:32.040Z,16284
2018-05-17T07:26:33.556Z,16996
2018-05-17T07:27:35.183Z,19264
2018-05-17T07:28:36.749Z,20160
2018-05-17T07:29:38.368Z,21408
2018-05-17T07:30:39.997Z,23360
2018-05-17T07:31:41.578Z,26496
2018-05-17T07:32:43.150Z,32288
2018-05-17T07:33:44.746Z,35008
2018-05-17T07:34:46.299Z,32192
2018-05-17T07:35:47.878Z,29120
2018-05-17T07:36:49.513Z,29024
2018-05-17T07:37:51.035Z,29952
2018-05-17T07:38:52.611Z,31936
2018-05-17T07:39:54.140Z,35520
2018-05-17T07:40:55.827Z,35136
2018-05-17T07:41:57.409Z,34432
2018-05-17T07:42:58.981Z,31616
2018-05-17T07:44:00.499Z,32640
2018-05-17T07:45:02.050Z,30208
2018-05-17T07:46:03.624Z,28384
2018-05-17T07:47:05.117Z,29536
2018-05-17T07:48:06.591Z,30272
2018-05-17T07:49:08.159Z,31104
2018-05-17T07:50:09.707Z,31360
2018-05-17T07:51:11.266Z,29280
2018-05-17T07:52:12.807Z,28512
2018-05-17T07:53:14.300Z,26880
2018-05-17T07:54:15.829Z,26144
2018-05-17T07:55:17.503Z,27360
2018-05-17T07:56:19.066Z,29856
2018-05-17T07:57:20.662Z,31616
2018-05-17T07:58:22.231Z,29952
2018-05-17T07:59:23.757Z,29344
2018-05-17T08:00:25.377Z,28928
2018-05-17T08:01:26.893Z,29248
2018-05-17T08:02:28.355Z,31808
2018-05-17T08:03:30.055Z,34272
2018-05-17T08:04:31.606Z,33760
2018-05-17T08:05:33.118Z,35872
2018-05-17T08:06:34.633Z,38048
2018-05-17T08:07:36.151Z,39904
2018-05-17T08:08:37.705Z,37600
2018-05-17T08:09:39.221Z,37664
2018-05-17T08:10:40.781Z,36992
2018-05-17T08:11:42.349Z,37632
2018-05-17T08:12:43.846Z,37984
2018-05-17T08:13:45.341Z,34592
2018-05-17T08:14:46.821Z,31232
2018-05-17T08:15:48.394Z,29440
2018-05-17T08:16:49.907Z,28576
2018-05-17T08:17:51.616Z,29792
2018-05-17T08:18:53.185Z,32096
2018-05-17T08:19:54.713Z,33696
2018-05-17T08:20:56.327Z,29984
2018-05-17T08:21:57.890Z,27776
2018-05-17T08:22:59.399Z,25856
2018-05-17T08:24:00.896Z,25088
2018-05-17T08:25:02.481Z,23328
2018-05-17T08:26:04.054Z,22496
2018-05-17T08:27:06.459Z,22304
2018-05-17T08:28:08.052Z,20992
2018-05-17T08:29:09.606Z,20256
2018-05-17T08:30:11.203Z,20224
2018-05-17T08:31:12.734Z,21376
2018-05-17T08:32:14.288Z,22048
2018-05-17T08:33:15.841Z,21984
2018-05-17T08:34:17.345Z,21792
2018-05-17T08:35:18.951Z,22240
2018-05-17T08:36:20.526Z,20736
2018-05-17T08:37:22.020Z,19552
2018-05-17T08:38:23.523Z,20320
2018-05-17T08:39:25.136Z,22784
2018-05-17T08:40:26.616Z,24928
2018-05-17T08:41:28.169Z,25024
2018-05-17T08:42:29.765Z,24256
2018-05-17T08:43:31.269Z,24320
2018-05-17T08:44:32.796Z,24352
2018-05-17T08:45:34.417Z,23520
2018-05-17T08:46:35.938Z,21568
2018-05-17T08:47:37.498Z,20704
2018-05-17T08:48:39.007Z,21312
2018-05-17T08:49:40.512Z,21824
2018-05-17T08:50:42.173Z,21248
2018-05-17T08:51:43.727Z,20672
2018-05-17T08:52:45.347Z,20256
2018-05-17T08:53:46.948Z,20192
2018-05-17T08:54:48.661Z,19232
2018-05-17T08:55:50.245Z,18816
2018-05-17T08:56:51.745Z,18880
2018-05-17T08:57:53.245Z,19200
2018-05-17T08:58:54.766Z,19776
2018-05-17T08:59:56.307Z,20096
2018-05-17T09:00:57.850Z,19840
2018-05-17T09:01:59.411Z,18720
2018-05-17T09:03:01.040Z,17316
2018-05-17T09:04:02.730Z,16960
2018-05-17T09:05:04.174Z,17048
2018-05-17T09:06:06.754Z,16476
2018-05-17T09:07:08.320Z,15628
2018-05-17T09:08:09.940Z,15252
2018-05-17T09:09:11.501Z,15612
2018-05-17T09:10:13.143Z,15920
2018-05-17T09:11:14.747Z,15588
2018-05-17T09:12:16.333Z,15124
2018-05-17T09:13:18.041Z,15068
2018-05-17T09:14:19.569Z,14672
2018-05-17T09:15:21.318Z,13944
2018-05-17T09:16:22.870Z,14032
2018-05-17T09:17:24.505Z,15192
2018-05-17T09:18:26.058Z,15936
2018-05-17T09:19:27.587Z,17344
2018-05-17T09:20:29.257Z,20960
2018-05-17T09:21:30.757Z,23488
2018-05-17T09:22:32.347Z,24864
2018-05-17T09:23:33.969Z,25056
2018-05-17T09:24:35.499Z,25824
2018-05-17T09:25:37.197Z,26784
2018-05-17T09:26:38.760Z,27168
2018-05-17T09:27:40.277Z,26784
2018-05-17T09:28:41.872Z,26240
2018-05-17T09:29:43.488Z,26432
2018-05-17T09:30:45.082Z,28640
2018-05-17T09:31:46.723Z,31552
2018-05-17T09:32:48.281Z,33216
2018-05-17T09:33:49.902Z,33312
2018-05-17T09:34:51.468Z,31872
2018-05-17T09:35:52.993Z,31040
2018-05-17T09:36:54.580Z,30144
2018-05-17T09:37:56.115Z,29760
2018-05-17T09:38:57.714Z,30176
2018-05-17T09:39:59.304Z,29664
2018-05-17T09:41:00.874Z,28160
2018-05-17T09:42:02.509Z,27552
2018-05-17T09:43:04.137Z,27904
2018-05-17T09:44:05.680Z,28768
2018-05-17T09:45:07.206Z,29600
2018-05-17T09:46:08.795Z,31648
2018-05-17T09:47:10.247Z,33056
2018-05-17T09:48:11.724Z,36096
2018-05-17T09:49:13.247Z,39424
2018-05-17T09:50:14.819Z,46304
2018-05-17T09:51:16.429Z,45600
2018-05-17T09:52:18.075Z,45184
2018-05-17T09:53:19.519Z,39232
2018-05-17T09:54:21.056Z,37408
2018-05-17T09:55:22.657Z,38592
2018-05-17T09:56:24.139Z,38848
2018-05-17T09:57:25.855Z,37600
2018-05-17T09:58:27.350Z,37216
2018-05-17T09:59:28.965Z,38336
2018-05-17T10:00:30.512Z,39968
2018-05-17T10:01:32.171Z,39104
2018-05-17T10:02:33.741Z,38048
2018-05-17T10:03:35.284Z,36544
2018-05-17T10:04:36.852Z,34784
2018-05-17T10:05:38.355Z,33312
2018-05-17T10:06:40.076Z,33088
2018-05-17T10:07:41.561Z,34912
2018-05-17T10:08:43.096Z,36320
2018-05-17T10:09:44.587Z,37504
2018-05-17T10:10:46.222Z,40000
2018-05-17T10:11:47.749Z,49856
2018-05-17T10:12:49.247Z,53504
2018-05-17T10:13:50.808Z,55392
2018-05-17T10:14:52.400Z,52832
2018-05-17T10:15:53.899Z,45408
2018-05-17T10:16:55.394Z,40576
2018-05-17T10:17:56.932Z,39136
2018-05-17T10:18:58.600Z,39200
2018-05-17T10:20:01.746Z,40128
2018-05-17T10:21:03.265Z,39808
2018-05-17T10:22:04.790Z,40544
2018-05-17T10:23:06.378Z,41184
2018-05-17T10:24:07.867Z,43424
2018-05-17T10:25:09.567Z,41792
2018-05-17T10:26:11.094Z,45024
2018-05-17T10:27:12.620Z,48768
2018-05-17T10:28:14.142Z,45952
2018-05-17T10:29:15.710Z,43968
2018-05-17T10:30:17.273Z,41344
2018-05-17T10:31:18.788Z,39200
2018-05-17T10:32:20.298Z,39872
2018-05-17T10:33:21.806Z,41216
2018-05-17T10:34:23.408Z,40864
2018-05-17T10:35:25.109Z,40512
2018-05-17T10:36:26.661Z,42176
2018-05-17T10:37:28.265Z,45248
2018-05-17T10:38:29.781Z,47648
2018-05-17T10:39:31.396Z,47168
2018-05-17T10:40:32.924Z,48224
2018-05-17T10:41:34.412Z,50400
2018-05-17T10:42:36.584Z,55104
2018-05-17T10:43:38.218Z,59360
2018-05-17T10:44:40.195Z,52896
2018-05-17T10:45:42.595Z,53056
2018-05-17T10:46:44.073Z,56704
2018-05-17T10:47:45.581Z,57792
2018-05-17T10:48:47.191Z,58528
2018-05-17T10:49:48.756Z,56448
2018-05-17T10:50:50.359Z,58368
2018-05-17T10:51:52.003Z,54944
2018-05-17T10:52:53.557Z,53984
2018-05-17T10:53:55.091Z,53376
2018-05-17T10:54:56.630Z,49920
2018-05-17T10:55:58.210Z,57152
2018-05-17T10:56:59.728Z,43200
2018-05-17T10:58:01.218Z,42592
2018-05-17T10:59:02.724Z,42176
2018-05-17T11:00:04.227Z,41536
2018-05-17T11:01:06.294Z,41056
2018-05-17T11:02:07.771Z,40192
2018-05-17T11:03:09.324Z,41376
2018-05-17T11:04:10.832Z,42144
2018-05-17T11:05:12.418Z,41920
2018-05-17T11:06:13.942Z,39744
2018-05-17T11:07:15.530Z,37760
2018-05-17T11:08:17.095Z,35776
2018-05-17T11:09:18.677Z,34240
2018-05-17T11:10:20.231Z,33600
2018-05-17T11:11:21.796Z,33504
2018-05-17T11:12:23.406Z,33920
2018-05-17T11:13:24.917Z,34976
2018-05-17T11:14:26.509Z,37248
2018-05-17T11:15:28.137Z,39744
2018-05-17T11:16:29.717Z,44000
2018-05-17T11:17:31.260Z,63520
2018-05-17T11:18:33.173Z,71104
2018-05-17T11:19:34.658Z,64544
2018-05-17T11:20:36.289Z,67776
2018-05-17T11:21:37.847Z,66560
2018-05-17T11:22:39.535Z,80672
2018-05-17T11:23:41.119Z,103104
2018-05-17T11:24:42.718Z,67808
2018-05-17T11:25:44.319Z,106560
2018-05-17T11:26:45.938Z,98656
2018-05-17T11:27:47.563Z,93440
2018-05-17T11:28:49.133Z,107200
2018-05-17T11:29:50.674Z,58400
2018-05-17T11:30:52.282Z,107040
2018-05-17T11:31:53.847Z,114528
2018-05-17T11:32:55.461Z,112352
2018-05-17T11:33:56.891Z,106144
2018-05-17T11:34:58.399Z,58304
2018-05-17T11:35:59.892Z,57344
2018-05-17T11:37:01.413Z,52480
2018-05-17T11:38:02.969Z,47712
2018-05-17T11:39:04.539Z,45440
2018-05-17T11:40:06.674Z,45376
2018-05-17T11:41:08.090Z,46208
2018-05-17T11:42:09.667Z,47744
2018-05-17T11:43:11.251Z,50816
2018-05-17T11:44:12.843Z,53664
2018-05-17T11:45:14.345Z,62784
2018-05-17T11:46:15.946Z,93888
2018-05-17T11:47:17.535Z,89408
2018-05-17T11:48:19.218Z,84416
2018-05-17T11:49:20.579Z,81920
2018-05-17T11:50:22.150Z,82944
2018-05-17T11:51:23.646Z,86080
2018-05-17T11:52:25.195Z,88512
2018-05-17T11:53:26.837Z,89280
2018-05-17T11:54:28.532Z,88096
2018-05-17T11:55:30.196Z,86560
2018-05-17T11:56:31.705Z,85792
2018-05-17T11:57:33.182Z,86336
2018-05-17T11:58:34.721Z,89728
2018-05-17T11:59:36.257Z,87168
2018-05-17T12:00:37.828Z,63424
2018-05-17T12:01:39.471Z,80928
2018-05-17T12:02:41.053Z,83744
2018-05-17T12:03:42.500Z,85056
2018-05-17T12:04:43.995Z,87552
2018-05-17T12:05:45.613Z,91936
2018-05-17T12:06:47.202Z,92832
2018-05-17T12:07:48.715Z,82976
2018-05-17T12:08:50.209Z,82368
2018-05-17T12:09:51.777Z,85408
2018-05-17T12:10:53.368Z,89920
2018-05-17T12:11:54.932Z,90752
2018-05-17T12:12:57.025Z,88896
2018-05-17T12:13:58.718Z,87456
2018-05-17T12:15:00.294Z,83232
2018-05-17T12:16:02.105Z,83040
2018-05-17T12:17:03.664Z,78432
2018-05-17T12:18:05.237Z,79904
2018-05-17T12:19:06.876Z,81504
2018-05-17T12:20:08.534Z,82624
2018-05-17T12:21:10.090Z,85792
2018-05-17T12:22:11.586Z,81920
2018-05-17T12:23:13.126Z,77056
2018-05-17T12:24:14.793Z,61312
2018-05-17T12:25:16.366Z,59264
2018-05-17T12:26:17.819Z,44288
2018-05-17T12:27:19.477Z,43072
2018-05-17T12:28:20.970Z,42304
2018-05-17T12:29:22.527Z,41536
2018-05-17T12:30:24.081Z,40640
2018-05-17T12:31:25.672Z,40576
2018-05-17T12:32:27.286Z,40832
2018-05-17T12:33:28.972Z,41184
2018-05-17T12:34:30.557Z,41856
2018-05-17T12:35:32.195Z,42624
2018-05-17T12:36:33.804Z,43872
2018-05-17T12:37:35.958Z,43808
2018-05-17T12:38:37.589Z,44320
2018-05-17T12:39:39.290Z,52800
2018-05-17T12:40:41.065Z,58912
2018-05-17T12:41:42.580Z,58784
2018-05-17T12:42:44.274Z,48320
2018-05-17T12:43:45.897Z,44832
2018-05-17T12:44:47.565Z,45376
2018-05-17T12:45:49.135Z,49568
2018-05-17T12:46:51.090Z,57024
2018-05-17T12:47:52.811Z,51840
2018-05-17T12:48:54.788Z,48576
2018-05-17T12:49:56.306Z,48672
2018-05-17T12:50:57.913Z,49408
2018-05-17T12:51:59.340Z,51296
2018-05-17T12:53:01.163Z,53984
2018-05-17T12:54:02.895Z,62848
2018-05-17T12:55:04.642Z,69408
2018-05-17T12:56:07.252Z,81824
2018-05-17T12:57:08.884Z,79616
2018-05-17T12:58:10.655Z,78784
2018-05-17T12:59:12.337Z,52192
2018-05-17T13:00:13.994Z,50400
2018-05-17T13:01:15.550Z,51072
2018-05-17T13:02:17.359Z,52928
2018-05-17T13:03:18.880Z,60160
2018-05-17T13:04:20.456Z,82912
2018-05-17T13:05:22.213Z,68064
2018-05-17T13:06:23.725Z,56480
2018-05-17T13:07:25.323Z,72736
2018-05-17T13:08:27.065Z,63936
2018-05-17T13:09:28.701Z,59616
2018-05-17T13:10:30.343Z,61888
2018-05-17T13:11:32.148Z,57568
2018-05-17T13:12:33.729Z,53824
2018-05-17T13:13:35.530Z,53248
2018-05-17T13:14:37.113Z,55488
2018-05-17T13:15:38.910Z,52800
2018-05-17T13:16:40.432Z,54112
2018-05-17T13:17:41.964Z,54176
2018-05-17T13:18:43.886Z,64480
2018-05-17T13:19:45.449Z,64640
2018-05-17T13:20:46.973Z,59968
2018-05-17T13:21:48.642Z,63424
2018-05-17T13:22:50.251Z,73472
2018-05-17T13:23:51.970Z,64576
2018-05-17T13:24:53.657Z,72064
2018-05-17T13:25:55.409Z,67840
2018-05-17T13:26:57.102Z,75520
2018-05-17T13:27:58.580Z,61056
2018-05-17T13:29:00.121Z,67072
2018-05-17T13:30:01.612Z,70720
2018-05-17T13:31:03.122Z,65632
2018-05-17T13:32:04.791Z,53728
2018-05-17T13:33:06.340Z,53728
2018-05-17T13:34:08.364Z,55840
2018-05-17T13:35:10.049Z,58432
2018-05-17T13:36:12.106Z,61664
2018-05-17T13:37:13.792Z,66240
2018-05-17T13:38:15.299Z,56736
2018-05-17T13:39:17.144Z,59200
2018-05-17T13:40:19.097Z,52384
2018-05-17T13:41:20.695Z,50560
2018-05-17T13:42:22.281Z,53472
2018-05-17T13:43:24.310Z,52896
2018-05-17T13:44:25.932Z,53952
2018-05-17T13:45:27.544Z,55264
2018-05-17T13:46:29.168Z,55616
2018-05-17T13:47:30.779Z,55296
2018-05-17T13:48:32.885Z,52640
2018-05-17T13:49:35.086Z,51584
2018-05-17T13:50:36.737Z,54240
2018-05-17T13:51:38.652Z,54816
2018-05-17T13:52:40.502Z,52384
2018-05-17T13:53:42.059Z,52448
2018-05-17T13:54:43.945Z,55104
2018-05-17T13:55:45.713Z,56416
2018-05-17T13:56:47.394Z,55168
2018-05-17T13:57:49.473Z,51648
2018-05-17T13:58:51.341Z,49184
2018-05-17T13:59:53.315Z,49312
2018-05-17T14:00:54.860Z,48192
2018-05-17T14:01:56.410Z,48640
2018-05-17T14:02:58.007Z,47584